sensor_id;sensor_type;location;lat;lon;timestamp;temperature;humidity
4518;DHT22;2271;49.464;11.070;2023-04-03T00:01:10;5.50;99.90
4518;DHT22;2271;49.464;11.070;2023-04-03T00:03:36;5.70;99.90
4518;DHT22;2271;49.464;11.070;2023-04-03T00:06:03;5.80;99.90
4518;DHT22;2271;49.464;11.070;2023-04-03T00:08:29;6.00;99.90
4518;DHT22;2271;49.464;11.070;2023-04-03T00:10:56;6.10;99.90
4518;DHT22;2271;49.464;11.070;2023-04-03T00:13:22;6.10;99.90
4518;DHT22;2271;49.464;11.070;2023-04-03T00:15:48;6.30;99.90
4518;DHT22;2271;49.464;11.070;2023-04-03T00:18:14;6.20;99.90
4518;DHT22;2271;49.464;11.070;2023-04-03T00:20:40;6.30;99.90
4518;DHT22;2271;49.464;11.070;2023-04-03T00:23:06;6.30;99.90
4518;DHT22;2271;49.464;11.070;2023-04-03T00:25:32;6.30;99.90
4518;DHT22;2271;49.464;11.070;2023-04-03T00:27:58;6.30;99.90
4518;DHT22;2271;49.464;11.070;2023-04-03T00:30:24;6.30;99.90
4518;DHT22;2271;49.464;11.070;2023-04-03T00:32:51;6.30;99.90
4518;DHT22;2271;49.464;11.070;2023-04-03T00:35:18;6.30;99.90
4518;DHT22;2271;49.464;11.070;2023-04-03T00:37:44;6.30;99.90
4518;DHT22;2271;49.464;11.070;2023-04-03T00:40:12;6.30;99.90
4518;DHT22;2271;49.464;11.070;2023-04-03T00:42:40;6.20;99.90
4518;DHT22;2271;49.464;11.070;2023-04-03T00:47:58;5.50;99.90
4518;DHT22;2271;49.464;11.070;2023-04-03T00:50:27;5.50;99.90
4518;DHT22;2271;49.464;11.070;2023-04-03T00:52:53;5.30;99.90
4518;DHT22;2271;49.464;11.070;2023-04-03T00:55:19;5.20;99.90
4518;DHT22;2271;49.464;11.070;2023-04-03T00:57:46;5.30;99.90
4518;DHT22;2271;49.464;11.070;2023-04-03T01:00:15;5.40;99.90
4518;DHT22;2271;49.464;11.070;2023-04-03T01:02:41;5.50;99.90
4518;DHT22;2271;49.464;11.070;2023-04-03T01:05:08;5.40;99.90
4518;DHT22;2271;49.464;11.070;2023-04-03T01:07:34;5.40;99.90
4518;DHT22;2271;49.464;11.070;2023-04-03T01:10:03;5.50;99.90
4518;DHT22;2271;49.464;11.070;2023-04-03T01:15:00;5.30;99.90
4518;DHT22;2271;49.464;11.070;2023-04-03T01:25:34;5.20;99.90
4518;DHT22;2271;49.464;11.070;2023-04-03T01:28:00;5.30;99.90
4518;DHT22;2271;49.464;11.070;2023-04-03T01:30:31;5.30;99.90
4518;DHT22;2271;49.464;11.070;2023-04-03T01:32:57;5.40;99.90
4518;DHT22;2271;49.464;11.070;2023-04-03T01:35:23;5.50;99.90
4518;DHT22;2271;49.464;11.070;2023-04-03T01:37:48;5.60;99.90
4518;DHT22;2271;49.464;11.070;2023-04-03T01:40:14;5.70;99.90
4518;DHT22;2271;49.464;11.070;2023-04-03T01:42:40;5.80;99.90
4518;DHT22;2271;49.464;11.070;2023-04-03T01:45:06;5.80;99.90
4518;DHT22;2271;49.464;11.070;2023-04-03T01:47:32;5.90;99.90
4518;DHT22;2271;49.464;11.070;2023-04-03T01:49:58;5.80;99.90
4518;DHT22;2271;49.464;11.070;2023-04-03T01:52:23;5.90;99.90
4518;DHT22;2271;49.464;11.070;2023-04-03T01:54:49;5.80;99.90
4518;DHT22;2271;49.464;11.070;2023-04-03T01:57:16;5.80;99.90
4518;DHT22;2271;49.464;11.070;2023-04-03T01:59:41;5.90;99.90
4518;DHT22;2271;49.464;11.070;2023-04-03T02:02:07;5.90;99.90
4518;DHT22;2271;49.464;11.070;2023-04-03T02:04:32;5.90;99.90
4518;DHT22;2271;49.464;11.070;2023-04-03T02:06:58;5.90;99.90
4518;DHT22;2271;49.464;11.070;2023-04-03T02:09:24;5.80;99.90
4518;DHT22;2271;49.464;11.070;2023-04-03T02:11:49;5.80;99.90
4518;DHT22;2271;49.464;11.070;2023-04-03T02:14:15;5.80;99.90
4518;DHT22;2271;49.464;11.070;2023-04-03T02:16:41;5.80;99.90
4518;DHT22;2271;49.464;11.070;2023-04-03T02:19:06;5.70;99.90
4518;DHT22;2271;49.464;11.070;2023-04-03T02:21:32;5.70;99.90
4518;DHT22;2271;49.464;11.070;2023-04-03T02:23:58;5.70;99.90
4518;DHT22;2271;49.464;11.070;2023-04-03T02:26:23;5.70;99.90
4518;DHT22;2271;49.464;11.070;2023-04-03T02:28:50;5.70;99.90
4518;DHT22;2271;49.464;11.070;2023-04-03T02:31:15;5.60;99.90
4518;DHT22;2271;49.464;11.070;2023-04-03T02:33:41;5.60;99.90
4518;DHT22;2271;49.464;11.070;2023-04-03T02:36:08;5.60;99.90
4518;DHT22;2271;49.464;11.070;2023-04-03T02:38:34;5.60;99.90
4518;DHT22;2271;49.464;11.070;2023-04-03T02:41:02;5.40;99.90
4518;DHT22;2271;49.464;11.070;2023-04-03T02:43:28;5.20;99.90
4518;DHT22;2271;49.464;11.070;2023-04-03T02:45:53;5.00;99.90
4518;DHT22;2271;49.464;11.070;2023-04-03T02:48:19;4.70;99.90
4518;DHT22;2271;49.464;11.070;2023-04-03T02:50:45;4.40;99.90
4518;DHT22;2271;49.464;11.070;2023-04-03T02:53:10;4.30;99.90
4518;DHT22;2271;49.464;11.070;2023-04-03T02:55:36;4.20;99.90
4518;DHT22;2271;49.464;11.070;2023-04-03T02:58:02;4.00;99.90
4518;DHT22;2271;49.464;11.070;2023-04-03T03:00:29;4.10;99.90
4518;DHT22;2271;49.464;11.070;2023-04-03T03:02:54;4.20;99.90
4518;DHT22;2271;49.464;11.070;2023-04-03T03:05:20;4.20;99.90
4518;DHT22;2271;49.464;11.070;2023-04-03T03:07:46;4.30;99.90
4518;DHT22;2271;49.464;11.070;2023-04-03T03:10:11;4.40;99.90
4518;DHT22;2271;49.464;11.070;2023-04-03T03:12:37;4.40;99.90
4518;DHT22;2271;49.464;11.070;2023-04-03T03:15:03;4.40;99.90
4518;DHT22;2271;49.464;11.070;2023-04-03T03:17:28;4.40;99.90
4518;DHT22;2271;49.464;11.070;2023-04-03T03:19:54;4.60;99.90
4518;DHT22;2271;49.464;11.070;2023-04-03T03:22:20;4.60;99.90
4518;DHT22;2271;49.464;11.070;2023-04-03T03:24:45;4.70;99.90
4518;DHT22;2271;49.464;11.070;2023-04-03T03:27:11;4.80;99.90
4518;DHT22;2271;49.464;11.070;2023-04-03T03:29:37;4.70;99.90
4518;DHT22;2271;49.464;11.070;2023-04-03T03:32:03;4.80;99.90
4518;DHT22;2271;49.464;11.070;2023-04-03T03:34:29;4.70;99.90
4518;DHT22;2271;49.464;11.070;2023-04-03T03:36:54;4.50;99.90
4518;DHT22;2271;49.464;11.070;2023-04-03T03:39:20;4.40;99.90
4518;DHT22;2271;49.464;11.070;2023-04-03T03:41:46;4.30;99.90
4518;DHT22;2271;49.464;11.070;2023-04-03T03:44:12;4.10;99.90
4518;DHT22;2271;49.464;11.070;2023-04-03T03:46:38;4.00;99.90
4518;DHT22;2271;49.464;11.070;2023-04-03T03:49:04;4.10;99.90
4518;DHT22;2271;49.464;11.070;2023-04-03T03:51:29;4.10;99.90
4518;DHT22;2271;49.464;11.070;2023-04-03T03:53:55;4.20;99.90
4518;DHT22;2271;49.464;11.070;2023-04-03T03:56:21;4.30;99.90
4518;DHT22;2271;49.464;11.070;2023-04-03T03:58:47;4.40;99.90
4518;DHT22;2271;49.464;11.070;2023-04-03T04:01:12;4.50;99.90
4518;DHT22;2271;49.464;11.070;2023-04-03T04:03:38;4.60;99.90
4518;DHT22;2271;49.464;11.070;2023-04-03T04:06:04;4.50;99.90
4518;DHT22;2271;49.464;11.070;2023-04-03T04:08:29;4.60;99.90
4518;DHT22;2271;49.464;11.070;2023-04-03T04:10:55;4.60;99.90
4518;DHT22;2271;49.464;11.070;2023-04-03T04:13:21;4.70;99.90
4518;DHT22;2271;49.464;11.070;2023-04-03T04:15:46;4.60;99.90
4518;DHT22;2271;49.464;11.070;2023-04-03T04:18:12;4.50;99.90
4518;DHT22;2271;49.464;11.070;2023-04-03T04:20:38;4.40;99.90
4518;DHT22;2271;49.464;11.070;2023-04-03T04:23:03;4.20;99.90
4518;DHT22;2271;49.464;11.070;2023-04-03T04:25:29;4.10;99.90
4518;DHT22;2271;49.464;11.070;2023-04-03T04:27:55;4.30;99.90
4518;DHT22;2271;49.464;11.070;2023-04-03T04:30:21;4.30;99.90
4518;DHT22;2271;49.464;11.070;2023-04-03T04:32:46;4.30;99.90
4518;DHT22;2271;49.464;11.070;2023-04-03T04:35:12;4.50;99.90
4518;DHT22;2271;49.464;11.070;2023-04-03T04:37:38;4.60;99.90
4518;DHT22;2271;49.464;11.070;2023-04-03T04:40:04;4.60;99.90
4518;DHT22;2271;49.464;11.070;2023-04-03T04:42:29;4.70;99.90
4518;DHT22;2271;49.464;11.070;2023-04-03T04:44:55;4.60;99.90
4518;DHT22;2271;49.464;11.070;2023-04-03T04:47:21;4.70;99.90
4518;DHT22;2271;49.464;11.070;2023-04-03T04:49:46;4.70;99.90
4518;DHT22;2271;49.464;11.070;2023-04-03T04:52:13;4.60;99.90
4518;DHT22;2271;49.464;11.070;2023-04-03T04:54:39;4.60;99.90
4518;DHT22;2271;49.464;11.070;2023-04-03T04:57:04;4.70;99.90
4518;DHT22;2271;49.464;11.070;2023-04-03T04:59:30;4.60;99.90
4518;DHT22;2271;49.464;11.070;2023-04-03T05:01:56;4.70;99.90
4518;DHT22;2271;49.464;11.070;2023-04-03T05:04:22;4.60;99.90
4518;DHT22;2271;49.464;11.070;2023-04-03T05:06:47;4.60;99.90
4518;DHT22;2271;49.464;11.070;2023-04-03T05:09:13;4.50;99.90
4518;DHT22;2271;49.464;11.070;2023-04-03T05:11:39;4.60;99.90
4518;DHT22;2271;49.464;11.070;2023-04-03T05:14:04;4.60;99.90
4518;DHT22;2271;49.464;11.070;2023-04-03T05:16:33;4.60;99.90
4518;DHT22;2271;49.464;11.070;2023-04-03T05:19:00;4.70;99.90
4518;DHT22;2271;49.464;11.070;2023-04-03T05:21:25;4.70;99.90
4518;DHT22;2271;49.464;11.070;2023-04-03T05:23:53;4.80;99.90
4518;DHT22;2271;49.464;11.070;2023-04-03T05:26:18;4.80;99.90
4518;DHT22;2271;49.464;11.070;2023-04-03T05:28:44;4.80;99.90
4518;DHT22;2271;49.464;11.070;2023-04-03T05:31:10;4.80;99.90
4518;DHT22;2271;49.464;11.070;2023-04-03T05:33:35;4.80;99.90
4518;DHT22;2271;49.464;11.070;2023-04-03T05:36:04;4.80;99.90
4518;DHT22;2271;49.464;11.070;2023-04-03T05:38:32;4.80;99.90
4518;DHT22;2271;49.464;11.070;2023-04-03T05:40:58;4.90;99.90
4518;DHT22;2271;49.464;11.070;2023-04-03T05:43:23;5.00;99.90
4518;DHT22;2271;49.464;11.070;2023-04-03T05:45:50;5.00;99.90
4518;DHT22;2271;49.464;11.070;2023-04-03T05:48:15;5.00;99.90
4518;DHT22;2271;49.464;11.070;2023-04-03T05:50:41;5.00;99.90
4518;DHT22;2271;49.464;11.070;2023-04-03T05:53:16;4.90;99.90
4518;DHT22;2271;49.464;11.070;2023-04-03T05:55:43;5.00;99.90
4518;DHT22;2271;49.464;11.070;2023-04-03T05:58:08;4.90;99.90
4518;DHT22;2271;49.464;11.070;2023-04-03T06:00:34;5.00;99.90
4518;DHT22;2271;49.464;11.070;2023-04-03T06:03:00;5.00;99.90
4518;DHT22;2271;49.464;11.070;2023-04-03T06:05:25;5.00;99.90
4518;DHT22;2271;49.464;11.070;2023-04-03T06:07:51;4.80;99.90
4518;DHT22;2271;49.464;11.070;2023-04-03T06:10:17;4.80;99.90
4518;DHT22;2271;49.464;11.070;2023-04-03T06:12:43;4.80;99.90
4518;DHT22;2271;49.464;11.070;2023-04-03T06:15:08;4.90;99.90
4518;DHT22;2271;49.464;11.070;2023-04-03T06:17:36;4.90;99.90
4518;DHT22;2271;49.464;11.070;2023-04-03T06:20:03;4.80;99.90
4518;DHT22;2271;49.464;11.070;2023-04-03T06:22:29;4.80;99.90
4518;DHT22;2271;49.464;11.070;2023-04-03T06:24:56;4.40;99.90
4518;DHT22;2271;49.464;11.070;2023-04-03T06:27:22;4.20;99.90
4518;DHT22;2271;49.464;11.070;2023-04-03T06:29:47;4.20;99.90
4518;DHT22;2271;49.464;11.070;2023-04-03T06:32:15;4.20;99.90
4518;DHT22;2271;49.464;11.070;2023-04-03T06:34:41;4.40;99.90
4518;DHT22;2271;49.464;11.070;2023-04-03T06:37:16;4.50;99.90
4518;DHT22;2271;49.464;11.070;2023-04-03T06:39:43;4.40;99.90
4518;DHT22;2271;49.464;11.070;2023-04-03T06:42:08;4.20;99.90
4518;DHT22;2271;49.464;11.070;2023-04-03T06:44:34;4.10;99.90
4518;DHT22;2271;49.464;11.070;2023-04-03T06:47:00;3.80;99.90
4518;DHT22;2271;49.464;11.070;2023-04-03T06:49:26;3.60;99.90
4518;DHT22;2271;49.464;11.070;2023-04-03T06:51:52;3.50;99.90
4518;DHT22;2271;49.464;11.070;2023-04-03T06:54:17;3.40;99.90
4518;DHT22;2271;49.464;11.070;2023-04-03T06:56:44;3.50;99.90
4518;DHT22;2271;49.464;11.070;2023-04-03T06:59:12;3.80;99.90
4518;DHT22;2271;49.464;11.070;2023-04-03T07:01:39;3.90;99.90
4518;DHT22;2271;49.464;11.070;2023-04-03T07:04:06;3.90;99.90
4518;DHT22;2271;49.464;11.070;2023-04-03T07:06:32;4.00;99.90
4518;DHT22;2271;49.464;11.070;2023-04-03T07:08:59;4.00;99.90
4518;DHT22;2271;49.464;11.070;2023-04-03T07:11:26;4.10;99.90
4518;DHT22;2271;49.464;11.070;2023-04-03T07:13:52;4.30;99.90
4518;DHT22;2271;49.464;11.070;2023-04-03T07:16:18;4.30;99.90
4518;DHT22;2271;49.464;11.070;2023-04-03T07:18:44;4.30;99.90
4518;DHT22;2271;49.464;11.070;2023-04-03T07:21:10;4.50;99.90
4518;DHT22;2271;49.464;11.070;2023-04-03T07:23:35;4.70;99.90
4518;DHT22;2271;49.464;11.070;2023-04-03T07:26:01;4.80;99.90
4518;DHT22;2271;49.464;11.070;2023-04-03T07:28:27;5.10;99.90
4518;DHT22;2271;49.464;11.070;2023-04-03T07:30:59;5.00;99.90
4518;DHT22;2271;49.464;11.070;2023-04-03T07:33:25;4.60;99.90
4518;DHT22;2271;49.464;11.070;2023-04-03T07:35:51;4.40;99.90
4518;DHT22;2271;49.464;11.070;2023-04-03T07:38:17;4.30;99.90
4518;DHT22;2271;49.464;11.070;2023-04-03T07:40:50;4.30;99.90
4518;DHT22;2271;49.464;11.070;2023-04-03T07:43:17;4.20;99.90
4518;DHT22;2271;49.464;11.070;2023-04-03T07:45:46;4.20;99.90
4518;DHT22;2271;49.464;11.070;2023-04-03T07:48:13;4.20;99.90
4518;DHT22;2271;49.464;11.070;2023-04-03T07:50:41;4.30;99.90
4518;DHT22;2271;49.464;11.070;2023-04-03T07:53:07;4.20;99.90
4518;DHT22;2271;49.464;11.070;2023-04-03T07:55:33;4.20;99.90
4518;DHT22;2271;49.464;11.070;2023-04-03T07:57:59;4.00;99.90
4518;DHT22;2271;49.464;11.070;2023-04-03T08:00:25;4.00;99.90
4518;DHT22;2271;49.464;11.070;2023-04-03T08:02:51;4.10;99.90
4518;DHT22;2271;49.464;11.070;2023-04-03T08:05:18;4.10;99.90
4518;DHT22;2271;49.464;11.070;2023-04-03T08:07:44;4.10;99.90
4518;DHT22;2271;49.464;11.070;2023-04-03T08:10:10;4.30;99.90
4518;DHT22;2271;49.464;11.070;2023-04-03T08:12:35;4.60;99.90
4518;DHT22;2271;49.464;11.070;2023-04-03T08:15:03;4.80;99.90
4518;DHT22;2271;49.464;11.070;2023-04-03T08:17:29;5.00;99.90
4518;DHT22;2271;49.464;11.070;2023-04-03T08:19:55;5.30;99.90
4518;DHT22;2271;49.464;11.070;2023-04-03T08:22:20;5.40;99.90
4518;DHT22;2271;49.464;11.070;2023-04-03T08:24:46;5.50;99.90
4518;DHT22;2271;49.464;11.070;2023-04-03T08:27:12;5.30;99.90
4518;DHT22;2271;49.464;11.070;2023-04-03T08:29:38;4.80;99.90
4518;DHT22;2271;49.464;11.070;2023-04-03T08:32:05;4.60;99.90
4518;DHT22;2271;49.464;11.070;2023-04-03T08:34:30;4.80;99.90
4518;DHT22;2271;49.464;11.070;2023-04-03T08:37:02;4.90;99.90
4518;DHT22;2271;49.464;11.070;2023-04-03T08:39:28;5.20;99.90
4518;DHT22;2271;49.464;11.070;2023-04-03T08:41:58;5.60;99.90
4518;DHT22;2271;49.464;11.070;2023-04-03T08:49:51;6.20;99.90
4518;DHT22;2271;49.464;11.070;2023-04-03T08:52:22;6.10;99.90
4518;DHT22;2271;49.464;11.070;2023-04-03T08:54:53;6.10;99.90
4518;DHT22;2271;49.464;11.070;2023-04-03T08:57:35;6.00;99.90
4518;DHT22;2271;49.464;11.070;2023-04-03T09:00:20;5.60;99.90
4518;DHT22;2271;49.464;11.070;2023-04-03T09:02:52;5.60;99.90
4518;DHT22;2271;49.464;11.070;2023-04-03T09:08:19;5.70;99.90
4518;DHT22;2271;49.464;11.070;2023-04-03T09:10:46;5.30;99.90
4518;DHT22;2271;49.464;11.070;2023-04-03T09:15:47;5.10;99.90
4518;DHT22;2271;49.464;11.070;2023-04-03T09:18:23;5.00;99.90
4518;DHT22;2271;49.464;11.070;2023-04-03T09:21:04;4.80;99.90
4518;DHT22;2271;49.464;11.070;2023-04-03T09:23:55;4.80;99.90
4518;DHT22;2271;49.464;11.070;2023-04-03T09:26:33;4.60;99.90
4518;DHT22;2271;49.464;11.070;2023-04-03T09:29:05;4.40;99.90
4518;DHT22;2271;49.464;11.070;2023-04-03T09:31:40;4.60;99.90
4518;DHT22;2271;49.464;11.070;2023-04-03T09:34:22;4.50;99.90
4518;DHT22;2271;49.464;11.070;2023-04-03T09:36:51;4.50;99.90
4518;DHT22;2271;49.464;11.070;2023-04-03T09:39:19;4.60;99.90
4518;DHT22;2271;49.464;11.070;2023-04-03T09:42:11;4.80;99.90
4518;DHT22;2271;49.464;11.070;2023-04-03T09:44:38;4.90;99.90
4518;DHT22;2271;49.464;11.070;2023-04-03T09:49:43;4.90;99.90
4518;DHT22;2271;49.464;11.070;2023-04-03T09:52:22;4.90;99.90
4518;DHT22;2271;49.464;11.070;2023-04-03T09:54:48;5.00;99.90
4518;DHT22;2271;49.464;11.070;2023-04-03T09:57:14;5.00;99.90
4518;DHT22;2271;49.464;11.070;2023-04-03T09:59:45;5.10;99.90
4518;DHT22;2271;49.464;11.070;2023-04-03T10:02:31;5.70;99.90
4518;DHT22;2271;49.464;11.070;2023-04-03T10:04:58;6.40;99.90
4518;DHT22;2271;49.464;11.070;2023-04-03T10:07:35;6.60;99.90
4518;DHT22;2271;49.464;11.070;2023-04-03T10:10:21;6.50;99.90
4518;DHT22;2271;49.464;11.070;2023-04-03T10:13:00;6.40;99.90
4518;DHT22;2271;49.464;11.070;2023-04-03T10:15:29;6.10;99.90
4518;DHT22;2271;49.464;11.070;2023-04-03T10:18:02;6.00;99.90
4518;DHT22;2271;49.464;11.070;2023-04-03T10:20:43;5.80;99.90
4518;DHT22;2271;49.464;11.070;2023-04-03T10:23:26;5.50;99.90
4518;DHT22;2271;49.464;11.070;2023-04-03T10:34:40;6.10;99.90
4518;DHT22;2271;49.464;11.070;2023-04-03T10:37:29;6.30;99.90
4518;DHT22;2271;49.464;11.070;2023-04-03T10:45:08;5.60;99.90
4518;DHT22;2271;49.464;11.070;2023-04-03T10:47:41;5.70;99.90
4518;DHT22;2271;49.464;11.070;2023-04-03T10:56:48;6.40;99.90
4518;DHT22;2271;49.464;11.070;2023-04-03T11:01:46;6.90;99.90
4518;DHT22;2271;49.464;11.070;2023-04-03T11:04:16;6.30;99.90
4518;DHT22;2271;49.464;11.070;2023-04-03T11:06:51;6.10;99.90
4518;DHT22;2271;49.464;11.070;2023-04-03T11:09:31;6.20;99.90
4518;DHT22;2271;49.464;11.070;2023-04-03T11:12:04;6.10;99.90
4518;DHT22;2271;49.464;11.070;2023-04-03T11:14:35;5.80;99.90
4518;DHT22;2271;49.464;11.070;2023-04-03T11:17:09;5.90;99.90
4518;DHT22;2271;49.464;11.070;2023-04-03T11:22:30;7.20;99.90
4518;DHT22;2271;49.464;11.070;2023-04-03T11:25:18;7.50;99.90
4518;DHT22;2271;49.464;11.070;2023-04-03T11:27:55;7.40;99.90
4518;DHT22;2271;49.464;11.070;2023-04-03T11:36:08;7.00;99.90
4518;DHT22;2271;49.464;11.070;2023-04-03T11:38:37;7.00;99.90
4518;DHT22;2271;49.464;11.070;2023-04-03T11:41:07;7.10;99.90
4518;DHT22;2271;49.464;11.070;2023-04-03T11:43:36;7.30;99.90
4518;DHT22;2271;49.464;11.070;2023-04-03T11:46:07;7.70;99.90
4518;DHT22;2271;49.464;11.070;2023-04-03T11:53:42;7.40;99.90
4518;DHT22;2271;49.464;11.070;2023-04-03T12:01:52;7.00;99.90
4518;DHT22;2271;49.464;11.070;2023-04-03T12:04:21;6.90;99.90
4518;DHT22;2271;49.464;11.070;2023-04-03T12:09:26;7.50;99.90
4518;DHT22;2271;49.464;11.070;2023-04-03T12:11:53;7.90;99.90
4518;DHT22;2271;49.464;11.070;2023-04-03T12:14:22;8.30;99.90
4518;DHT22;2271;49.464;11.070;2023-04-03T12:16:49;8.20;99.90
4518;DHT22;2271;49.464;11.070;2023-04-03T12:19:36;7.90;99.90
4518;DHT22;2271;49.464;11.070;2023-04-03T12:24:39;7.40;99.90
4518;DHT22;2271;49.464;11.070;2023-04-03T12:32:51;7.70;99.90
4518;DHT22;2271;49.464;11.070;2023-04-03T12:35:37;7.60;99.90
4518;DHT22;2271;49.464;11.070;2023-04-03T12:45:46;8.00;99.90
4518;DHT22;2271;49.464;11.070;2023-04-03T12:48:18;7.90;99.90
4518;DHT22;2271;49.464;11.070;2023-04-03T12:50:47;8.10;99.90
4518;DHT22;2271;49.464;11.070;2023-04-03T12:53:21;8.40;99.90
4518;DHT22;2271;49.464;11.070;2023-04-03T12:55:54;8.70;99.90
4518;DHT22;2271;49.464;11.070;2023-04-03T12:58:27;9.20;99.90
4518;DHT22;2271;49.464;11.070;2023-04-03T13:01:09;9.00;99.90
4518;DHT22;2271;49.464;11.070;2023-04-03T13:03:39;9.10;99.90
4518;DHT22;2271;49.464;11.070;2023-04-03T13:06:05;9.30;99.90
4518;DHT22;2271;49.464;11.070;2023-04-03T13:08:32;9.00;99.90
4518;DHT22;2271;49.464;11.070;2023-04-03T13:11:10;8.60;99.90
4518;DHT22;2271;49.464;11.070;2023-04-03T13:13:37;8.10;99.90
4518;DHT22;2271;49.464;11.070;2023-04-03T13:16:11;8.30;99.90
4518;DHT22;2271;49.464;11.070;2023-04-03T13:18:39;8.30;99.90
4518;DHT22;2271;49.464;11.070;2023-04-03T13:21:10;8.10;99.90
4518;DHT22;2271;49.464;11.070;2023-04-03T13:23:38;8.20;99.90
4518;DHT22;2271;49.464;11.070;2023-04-03T13:26:06;8.20;99.90
4518;DHT22;2271;49.464;11.070;2023-04-03T13:28:33;8.00;99.90
4518;DHT22;2271;49.464;11.070;2023-04-03T13:31:06;8.40;99.90
4518;DHT22;2271;49.464;11.070;2023-04-03T13:33:34;8.70;99.90
4518;DHT22;2271;49.464;11.070;2023-04-03T13:36:08;9.20;99.90
4518;DHT22;2271;49.464;11.070;2023-04-03T13:38:39;9.50;99.90
4518;DHT22;2271;49.464;11.070;2023-04-03T13:41:23;9.70;99.90
4518;DHT22;2271;49.464;11.070;2023-04-03T13:43:49;8.70;99.90
4518;DHT22;2271;49.464;11.070;2023-04-03T13:48:46;8.30;99.90
4518;DHT22;2271;49.464;11.070;2023-04-03T13:53:59;8.00;99.90
4518;DHT22;2271;49.464;11.070;2023-04-03T13:56:37;7.60;99.90
4518;DHT22;2271;49.464;11.070;2023-04-03T14:06:47;8.70;99.90
4518;DHT22;2271;49.464;11.070;2023-04-03T14:09:14;9.00;99.90
4518;DHT22;2271;49.464;11.070;2023-04-03T14:11:41;8.90;99.90
4518;DHT22;2271;49.464;11.070;2023-04-03T14:14:21;9.00;99.90
4518;DHT22;2271;49.464;11.070;2023-04-03T14:16:53;9.20;99.90
4518;DHT22;2271;49.464;11.070;2023-04-03T14:19:25;9.10;99.90
4518;DHT22;2271;49.464;11.070;2023-04-03T14:21:53;8.80;99.90
4518;DHT22;2271;49.464;11.070;2023-04-03T14:24:19;8.10;99.90
4518;DHT22;2271;49.464;11.070;2023-04-03T14:26:45;8.00;99.90
4518;DHT22;2271;49.464;11.070;2023-04-03T14:29:12;8.30;99.90
4518;DHT22;2271;49.464;11.070;2023-04-03T14:31:39;8.30;99.90
4518;DHT22;2271;49.464;11.070;2023-04-03T14:34:05;8.20;99.90
4518;DHT22;2271;49.464;11.070;2023-04-03T14:36:33;8.40;99.90
4518;DHT22;2271;49.464;11.070;2023-04-03T14:38:59;8.40;99.90
4518;DHT22;2271;49.464;11.070;2023-04-03T14:41:26;8.10;99.90
4518;DHT22;2271;49.464;11.070;2023-04-03T14:43:53;8.10;99.90
4518;DHT22;2271;49.464;11.070;2023-04-03T14:48:56;7.90;99.90
4518;DHT22;2271;49.464;11.070;2023-04-03T14:51:22;7.90;99.90
4518;DHT22;2271;49.464;11.070;2023-04-03T14:53:48;7.90;99.90
4518;DHT22;2271;49.464;11.070;2023-04-03T14:56:18;8.00;99.90
4518;DHT22;2271;49.464;11.070;2023-04-03T14:58:44;7.90;99.90
4518;DHT22;2271;49.464;11.070;2023-04-03T15:01:11;7.90;99.90
4518;DHT22;2271;49.464;11.070;2023-04-03T15:03:37;7.90;99.90
4518;DHT22;2271;49.464;11.070;2023-04-03T15:06:03;7.90;99.90
4518;DHT22;2271;49.464;11.070;2023-04-03T15:08:29;8.00;99.90
4518;DHT22;2271;49.464;11.070;2023-04-03T15:10:55;7.90;99.90
4518;DHT22;2271;49.464;11.070;2023-04-03T15:13:22;7.40;99.90
4518;DHT22;2271;49.464;11.070;2023-04-03T15:15:49;7.20;99.90
4518;DHT22;2271;49.464;11.070;2023-04-03T15:18:19;7.30;99.90
4518;DHT22;2271;49.464;11.070;2023-04-03T15:20:45;7.50;99.90
4518;DHT22;2271;49.464;11.070;2023-04-03T15:23:13;7.10;99.90
4518;DHT22;2271;49.464;11.070;2023-04-03T15:25:42;6.90;99.90
4518;DHT22;2271;49.464;11.070;2023-04-03T15:28:13;7.00;99.90
4518;DHT22;2271;49.464;11.070;2023-04-03T15:30:40;7.00;99.90
4518;DHT22;2271;49.464;11.070;2023-04-03T15:33:06;6.70;99.90
4518;DHT22;2271;49.464;11.070;2023-04-03T15:35:32;6.50;99.90
4518;DHT22;2271;49.464;11.070;2023-04-03T15:37:57;6.60;99.90
4518;DHT22;2271;49.464;11.070;2023-04-03T15:40:23;6.90;99.90
4518;DHT22;2271;49.464;11.070;2023-04-03T15:42:48;7.00;99.90
4518;DHT22;2271;49.464;11.070;2023-04-03T15:45:14;7.20;99.90
4518;DHT22;2271;49.464;11.070;2023-04-03T15:47:40;7.30;99.90
4518;DHT22;2271;49.464;11.070;2023-04-03T15:50:06;6.90;99.90
4518;DHT22;2271;49.464;11.070;2023-04-03T15:52:33;6.60;99.90
4518;DHT22;2271;49.464;11.070;2023-04-03T15:54:59;6.70;99.90
4518;DHT22;2271;49.464;11.070;2023-04-03T15:57:24;6.80;99.90
4518;DHT22;2271;49.464;11.070;2023-04-03T15:59:52;7.00;99.90
4518;DHT22;2271;49.464;11.070;2023-04-03T16:02:18;6.70;99.90
4518;DHT22;2271;49.464;11.070;2023-04-03T16:04:43;6.50;99.90
4518;DHT22;2271;49.464;11.070;2023-04-03T16:07:09;6.50;99.90
4518;DHT22;2271;49.464;11.070;2023-04-03T16:09:35;6.40;99.90
4518;DHT22;2271;49.464;11.070;2023-04-03T16:12:01;6.50;99.90
4518;DHT22;2271;49.464;11.070;2023-04-03T16:14:27;6.60;99.90
4518;DHT22;2271;49.464;11.070;2023-04-03T16:16:55;6.80;99.90
4518;DHT22;2271;49.464;11.070;2023-04-03T16:19:21;6.50;99.90
4518;DHT22;2271;49.464;11.070;2023-04-03T16:21:48;6.20;99.90
4518;DHT22;2271;49.464;11.070;2023-04-03T16:24:14;6.30;99.90
4518;DHT22;2271;49.464;11.070;2023-04-03T16:26:39;6.30;99.90
4518;DHT22;2271;49.464;11.070;2023-04-03T16:29:05;6.20;99.90
4518;DHT22;2271;49.464;11.070;2023-04-03T16:31:32;6.10;99.90
4518;DHT22;2271;49.464;11.070;2023-04-03T16:33:58;6.10;99.90
4518;DHT22;2271;49.464;11.070;2023-04-03T16:36:25;6.20;99.90
4518;DHT22;2271;49.464;11.070;2023-04-03T16:38:51;6.20;99.90
4518;DHT22;2271;49.464;11.070;2023-04-03T16:41:17;6.10;99.90
4518;DHT22;2271;49.464;11.070;2023-04-03T16:43:42;6.10;99.90
4518;DHT22;2271;49.464;11.070;2023-04-03T16:46:08;6.20;99.90
4518;DHT22;2271;49.464;11.070;2023-04-03T16:48:34;6.30;99.90
4518;DHT22;2271;49.464;11.070;2023-04-03T16:51:00;6.20;99.90
4518;DHT22;2271;49.464;11.070;2023-04-03T16:53:26;6.00;99.90
4518;DHT22;2271;49.464;11.070;2023-04-03T16:55:52;5.70;99.90
4518;DHT22;2271;49.464;11.070;2023-04-03T16:58:18;5.70;99.90
4518;DHT22;2271;49.464;11.070;2023-04-03T17:00:44;5.50;99.90
4518;DHT22;2271;49.464;11.070;2023-04-03T17:03:10;5.40;99.90
4518;DHT22;2271;49.464;11.070;2023-04-03T17:05:35;5.30;99.90
4518;DHT22;2271;49.464;11.070;2023-04-03T17:08:01;5.40;99.90
4518;DHT22;2271;49.464;11.070;2023-04-03T17:10:28;5.30;99.90
4518;DHT22;2271;49.464;11.070;2023-04-03T17:12:53;5.20;99.90
4518;DHT22;2271;49.464;11.070;2023-04-03T17:15:20;5.10;99.90
4518;DHT22;2271;49.464;11.070;2023-04-03T17:17:47;5.00;99.90
4518;DHT22;2271;49.464;11.070;2023-04-03T17:20:14;5.00;99.90
4518;DHT22;2271;49.464;11.070;2023-04-03T17:22:39;4.90;99.90
4518;DHT22;2271;49.464;11.070;2023-04-03T17:25:06;4.90;99.90
4518;DHT22;2271;49.464;11.070;2023-04-03T17:27:31;4.80;99.90
4518;DHT22;2271;49.464;11.070;2023-04-03T17:29:57;4.90;99.90
4518;DHT22;2271;49.464;11.070;2023-04-03T17:32:24;4.90;99.90
4518;DHT22;2271;49.464;11.070;2023-04-03T17:34:50;5.00;99.90
4518;DHT22;2271;49.464;11.070;2023-04-03T17:37:16;4.90;99.90
4518;DHT22;2271;49.464;11.070;2023-04-03T17:39:42;4.90;99.90
4518;DHT22;2271;49.464;11.070;2023-04-03T17:42:07;4.90;99.90
4518;DHT22;2271;49.464;11.070;2023-04-03T17:44:33;4.80;99.90
4518;DHT22;2271;49.464;11.070;2023-04-03T17:46:59;4.90;99.90
4518;DHT22;2271;49.464;11.070;2023-04-03T17:49:24;4.80;99.90